Main page
METAR-TAF:

METAR-TAF

Airports :

Oil platform

P11-b, Netherlands

latitude: 52-21-36N, longitude: 3-20-30E, elevation: 24 m

Current weather observation

The report was made 39 minutes ago, at 21:25 UTC
Wind 10 kt from variable directions
Temperature 5°C
Humidity 75%
Pressure 1021 hPa
Visibility 10 km or more
Few clouds at a height of 1600 ft
Few clouds at a height of 1700 ft, Cumulonimbus.
Scattered clouds at a height of 2500 ft

METAR: EHPG 112125Z AUTO VRB10KT 9999 FEW016 FEW017CB SCT025 05/01 Q1021

Time: 00:04 (22:04 UTC)


TAF: missing

Weather observations and forecasts of more than 4000 airports (METAR and TAF reports).

The available stations are represented by yellow and red dots on the map.

Hover mouse over dot to see the name of the station.

Then click to see weather observations and forecasts.

To change the map : click on the green buttons with a black cross to zoom in, on the green button with a dash to zoom out, or on the green arrows for adjacent maps.


METAR-TAF: